No particular awareness of the weather is required.    There are no Weather-warnings

Kopaida air sports center. The private airport (CTAF) Kopaida (ZZZZ) located near Athens southwest of Castle village in Voiotia,
just one hour from leaving the National Road Athens - Lamia of Kifissia. The exact location of the airport is N 38 ° 27.41 'and E 023 ° 08.18'.



Kopaida NW more information Kopaida NW


Agios Dimitrios more information Agios Dimitrios


Kopaida live view NE

Athens SkydiveBecome a Skydiver

Spot fly AviationSpot Flight Academy



Nearby METAR Reports

   
LGTG - Tanagra
Updated: 20-07-2018 12:50
Few Clouds  
Few Clouds  
   Wind: North 13 km/h
Wind: North 13 km/h
Temperature: 30°C
Dew Point: 12°C
Humidity: 33%
Barometer: 1011 hPa
Clouds: Few Clouds
Visibility: More than 10 km
Cloud details: Few Clouds 3000 ft
LGTG 200950Z 36007KT 9999 FEW030 30/12 Q1011 RMK FEW080 BLU
LGBL - Anchialos
Updated: 20-07-2018 13:20
Few Clouds  
Few Clouds  
   Wind: East 16.7 km/h
Wind: East 16.7 km/h
Temperature: 31°C
Dew Point: 14°C
Humidity: 35%
Barometer: 1010 hPa
Clouds: Few Clouds
Visibility: More than 10 km
Cloud details: Few Clouds 3000 ft
LGBL 201020Z 08009KT 9999 FEW030 31/14 Q1010
LGKR - Corfu
Updated: 20-07-2018 13:20
Clear  
Clear  
   Wind: NNW 18.5 km/h
Wind: NNW 18.5 km/h
Temperature: 32°C
Heat Index: 39°C
Dew Point: 25°C
Humidity: 67%
Barometer: 1010 hPa
Visibility: More than 10 km
Cloud details: Clear ft
LGKR 201020Z 34010KT CAVOK 32/25 Q1010 NOSIG
LGAV - Eleftherios Venizelos
Updated: 20-07-2018 13:20
Partly Cloudy  
Partly Cloudy  
   Wind: NE 22.2 km/h
Wind: NE 22.2 km/h
Temperature: 31°C
Dew Point: 15°C
Humidity: 38%
Barometer: 1010 hPa
Clouds: Partly Cloudy
Visibility: More than 10 km
Cloud details: Partly Cloudy 3500 ft
LGAV 201020Z 05012KT 9999 SCT035 31/15 Q1010 NOSIG
LGMT - Mytilene
Updated: 20-07-2018 13:20
Few Clouds  
Few Clouds  
   Wind: North 20.4 km/h
Wind: North 20.4 km/h
Temperature: 30°C
Heat Index: 31°C
Dew Point: 19°C
Humidity: 52%
Barometer: 1009 hPa
Clouds: Few Clouds
Visibility: More than 10 km
Cloud details: Few Clouds 2000 ft
LGMT 201020Z 35011KT 320V020 9999 FEW020 30/19 Q1009
LGIR - Heraklion
Updated: 20-07-2018 13:20
Few Clouds  
Few Clouds  
   Wind: NNW 20.4 km/h
Wind: NNW 20.4 km/h
Temperature: 30°C
Heat Index: 34°C
Dew Point: 23°C
Humidity: 66%
Barometer: 1009 hPa
Clouds: Few Clouds
Visibility: More than 10 km
Cloud details: Few Clouds 2500 ft
LGIR 201020Z 33011KT 9999 FEW025 30/23 Q1009 NOSIG
LGRP - Rhodes
Updated: 20-07-2018 13:20
Few Clouds  
Few Clouds  
   Wind: WSW 27.8 km/h
Wind: WSW 27.8 km/h
Temperature: 28°C
Heat Index: 29°C
Dew Point: 20°C
Humidity: 62%
Barometer: 1005 hPa
Clouds: Few Clouds
Visibility: More than 10 km
Cloud details: Few Clouds 1600 ft
LGRP 201020Z 25015KT 9999 FEW016 28/20 Q1005 NOSIG
LGKV - Kavala
Updated: 20-07-2018 13:20
Few Clouds  
Few Clouds  
   Wind: SW 13 km/h
Wind: SW 13 km/h
Temperature: 30°C
Heat Index: 31°C
Dew Point: 17°C
Humidity: 46%
Barometer: 1009 hPa
Clouds: Few Clouds
Visibility: More than 10 km
Cloud details: Few Clouds 3500 ft
LGKV 201020Z 22007KT 9999 FEW035 30/17 Q1009
LGMK - Mikonos
Updated: 20-07-2018 13:20
Few Clouds  
Few Clouds  
   Wind: NNW 27.8 km/h
Wind: NNW 27.8 km/h
Temperature: 29°C
Heat Index: 30°C
Dew Point: 18°C
Humidity: 51%
Barometer: 1009 hPa
Clouds: Few Clouds
Visibility: More than 10 km
Cloud details: Few Clouds 1500 ft
LGMK 201020Z 34015KT 9999 FEW015 29/18 Q1009

Script developed by  Saratoga-weather.org Adapted for the template by  Weerstation Leuven

You find our weather info also at:

UK Metoffice

European Weather Network

WeatherCloud

Weather Underground

AWEKAS

Citizen Weather Observer Program (CWOP)

HAMweather, WeatherForYou, PWS Weather

Equipment we use:

Weather-station
Wireless Vantage Pro2

Weather-program
Weather Display

Wireless Vantage Pro2

Weather Display


Never base important decisions on this or any weather information obtained from the Internet

Kopaida airport (ZZZZ) - CTAF frequency : 119.700 - Tanagra(LGTG) MATZ 120.250

Airport Phone +306977612200, +302268041170, Contact Mr. George Papadopoulos.